Terminal Aerodrome Forecast
Issued by NWS

Home | Current Version | Previous Version | Text Only | Print | Product List | Glossary On
Versions: 1 2 3 4 5 6 7 8 9 10 11 12 13 14 15 16 17 18 19 20 21
000
FTUS43 KGRR 291727
TAFLAN
TAF
KLAN 291727Z 2918/3018 05007KT P6SM SCT150 BKN250
     FM301000 08011KT P6SM -RA OVC050
     FM301300 09015KT 4SM -RA OVC015
     FM301500 09014G25KT 2SM -RA OVC007
     FM301700 09017G27KT 1 1/2SM RA BR OVC003=

USA.gov is the U.S. government's official web portal to all federal, state and local government web resources and services.